Аэропорт: Габала. Габала

ICAO: UBBQ

METAR:
2021-04-21 21:00:00
UBBQ 212100Z 09004KT 9999 SCT040CB OVC150 17/13 Q1017 R16/////// NOSIG RMK MT OBSC
METAR:
Информация по данной станции не доступна